Time,TemperatureF,DewpointF,PressureIn,WindDirection,WindDirectionDegrees,WindSpeedMPH,WindSpeedGustMPH,Humidity,HourlyPrecipIn,Conditions,Clouds,dailyrainin,SoftwareType,DateUTC
2013-03-20 00:00:00,71.4,63.0,29.67,SW,225,0.0,0.0,69,0.00,,,0.00,fowsr,2013-03-20 04:00:00,
2013-03-20 00:05:00,71.4,63.0,29.67,SW,225,0.0,0.0,69,0.00,,,0.00,fowsr,2013-03-20 04:05:00,
2013-03-20 00:10:00,71.2,63.2,29.67,SW,225,0.0,0.0,70,0.00,,,0.00,fowsr,2013-03-20 04:10:00,
2013-03-20 00:15:00,71.1,63.3,29.66,SW,225,0.0,0.0,71,0.00,,,0.00,fowsr,2013-03-20 04:15:00,
2013-03-20 00:20:00,70.9,63.4,29.67,SW,225,0.0,0.0,72,0.00,,,0.00,fowsr,2013-03-20 04:20:00,
2013-03-20 00:25:00,70.7,63.3,29.67,SW,225,0.0,0.0,72,0.00,,,0.00,fowsr,2013-03-20 04:25:00,
2013-03-20 00:30:00,70.7,63.3,29.67,SW,225,0.0,0.0,72,0.00,,,0.00,fowsr,2013-03-20 04:30:00,
2013-03-20 00:35:00,70.5,63.1,29.66,SW,225,0.0,0.0,72,0.00,,,0.00,fowsr,2013-03-20 04:35:00,
2013-03-20 00:40:00,70.5,63.4,29.67,SW,225,0.0,0.0,73,0.00,,,0.00,fowsr,2013-03-20 04:40:00,
2013-03-20 00:45:00,70.5,63.4,29.67,SW,225,0.0,0.7,73,0.00,,,0.00,fowsr,2013-03-20 04:45:00,
2013-03-20 00:50:00,70.5,63.7,29.67,SW,225,0.0,0.0,74,0.00,,,0.00,fowsr,2013-03-20 04:50:00,
2013-03-20 00:55:00,70.5,63.7,29.67,SW,225,0.0,0.0,74,0.00,,,0.00,fowsr,2013-03-20 04:55:00,
2013-03-20 01:00:00,70.7,63.9,29.67,SW,225,0.0,0.0,74,0.00,,,0.00,fowsr,2013-03-20 05:00:00,
2013-03-20 01:05:00,70.7,63.9,29.66,SW,225,0.0,0.0,74,0.00,,,0.00,fowsr,2013-03-20 05:05:00,
2013-03-20 01:10:00,70.7,63.9,29.66,SW,225,0.0,0.0,74,0.00,,,0.00,fowsr,2013-03-20 05:10:00,
2013-03-20 01:15:00,70.7,64.2,29.66,SW,225,0.0,0.0,75,0.00,,,0.00,fowsr,2013-03-20 05:15:00,
2013-03-20 01:20:00,70.5,64.0,29.66,SW,225,0.0,0.0,75,0.00,,,0.00,fowsr,2013-03-20 05:20:00,
2013-03-20 01:25:00,70.3,63.8,29.67,SW,225,0.0,0.0,75,0.00,,,0.00,fowsr,2013-03-20 05:25:00,
2013-03-20 01:30:00,70.3,63.8,29.66,SW,225,0.0,0.0,75,0.00,,,0.00,fowsr,2013-03-20 05:30:00,
2013-03-20 01:35:00,70.2,63.7,29.66,SW,225,0.0,0.0,75,0.00,,,0.00,fowsr,2013-03-20 05:35:00,
2013-03-20 01:40:00,69.8,63.3,29.66,SW,225,0.0,0.0,75,0.00,,,0.00,fowsr,2013-03-20 05:40:00,
2013-03-20 01:50:00,69.4,63.5,29.65,SW,225,0.0,0.0,77,0.00,,,0.00,fowsr,2013-03-20 05:50:00,
2013-03-20 01:55:00,69.3,63.4,29.65,SW,225,0.0,0.0,77,0.00,,,0.00,fowsr,2013-03-20 05:55:00,
2013-03-20 02:00:00,69.3,63.4,29.65,SW,225,0.0,0.0,77,0.00,,,0.00,fowsr,2013-03-20 06:00:00,
2013-03-20 02:05:00,69.1,63.2,29.65,SW,225,0.0,0.0,77,0.00,,,0.00,fowsr,2013-03-20 06:05:00,
2013-03-20 02:10:00,68.9,63.0,29.64,SW,225,0.0,0.0,77,0.00,,,0.00,fowsr,2013-03-20 06:10:00,
2013-03-20 02:15:00,68.9,63.0,29.65,SW,225,0.0,0.0,77,0.00,,,0.00,fowsr,2013-03-20 06:15:00,
2013-03-20 02:20:00,68.9,63.0,29.65,SW,225,0.0,0.0,77,0.00,,,0.00,fowsr,2013-03-20 06:20:00,
2013-03-20 02:25:00,68.7,63.1,29.65,SW,225,0.0,0.0,78,0.00,,,0.00,fowsr,2013-03-20 06:25:00,
2013-03-20 02:30:00,68.7,63.1,29.65,SW,225,0.0,0.0,78,0.00,,,0.00,fowsr,2013-03-20 06:30:00,
2013-03-20 02:35:00,68.7,63.1,29.65,SW,225,0.0,0.0,78,0.00,,,0.00,fowsr,2013-03-20 06:35:00,
2013-03-20 02:45:00,68.7,63.4,29.65,SW,225,0.0,0.0,79,0.00,,,0.00,fowsr,2013-03-20 06:45:00,
2013-03-20 02:50:00,68.7,63.4,29.65,SW,225,0.0,0.0,79,0.00,,,0.00,fowsr,2013-03-20 06:50:00,
2013-03-20 02:55:00,68.7,63.7,29.64,SW,225,0.0,0.0,80,0.00,,,0.00,fowsr,2013-03-20 06:55:00,
2013-03-20 03:00:00,68.7,64.0,29.65,SW,225,0.0,0.0,81,0.00,,,0.00,fowsr,2013-03-20 07:00:00,
2013-03-20 03:05:00,68.7,64.0,29.64,SW,225,0.0,0.0,81,0.00,,,0.00,fowsr,2013-03-20 07:05:00,
2013-03-20 03:10:00,68.9,64.4,29.64,SW,225,0.0,0.0,82,0.00,,,0.00,fowsr,2013-03-20 07:10:00,
2013-03-20 03:15:00,69.1,64.6,29.63,SW,225,0.0,0.0,82,0.00,,,0.00,fowsr,2013-03-20 07:15:00,
2013-03-20 03:20:00,69.3,64.8,29.63,SW,225,0.0,0.0,82,0.00,,,0.00,fowsr,2013-03-20 07:20:00,
2013-03-20 03:25:00,69.3,64.8,29.62,SW,225,0.0,0.0,82,0.00,,,0.00,fowsr,2013-03-20 07:25:00,
2013-03-20 03:30:00,69.3,64.8,29.62,SW,225,0.0,0.0,82,0.00,,,0.00,fowsr,2013-03-20 07:30:00,
2013-03-20 03:35:00,69.3,64.8,29.62,SW,225,0.0,0.0,82,0.00,,,0.00,fowsr,2013-03-20 07:35:00,
2013-03-20 03:40:00,69.1,64.6,29.62,SW,225,0.0,0.0,82,0.00,,,0.00,fowsr,2013-03-20 07:40:00,
2013-03-20 03:45:00,69.1,64.6,29.63,SW,225,0.0,0.0,82,0.00,,,0.00,fowsr,2013-03-20 07:45:00,
2013-03-20 03:50:00,69.1,64.6,29.62,SW,225,0.0,0.0,82,0.00,,,0.00,fowsr,2013-03-20 07:50:00,
2013-03-20 03:55:00,69.1,64.9,29.63,SW,225,0.0,0.0,83,0.00,,,0.00,fowsr,2013-03-20 07:55:00,
2013-03-20 04:00:00,68.9,64.7,29.62,SW,225,0.0,0.0,83,0.00,,,0.00,fowsr,2013-03-20 08:00:00,
2013-03-20 04:05:00,68.9,64.7,29.62,SW,225,0.0,0.0,83,0.00,,,0.00,fowsr,2013-03-20 08:05:00,
2013-03-20 04:10:00,68.9,64.7,29.62,SW,225,0.0,0.0,83,0.00,,,0.00,fowsr,2013-03-20 08:10:00,
2013-03-20 04:15:00,68.7,64.5,29.62,SW,225,0.0,0.0,83,0.00,,,0.00,fowsr,2013-03-20 08:15:00,
2013-03-20 04:20:00,68.7,64.5,29.62,SW,225,0.0,0.0,83,0.00,,,0.00,fowsr,2013-03-20 08:20:00,
2013-03-20 04:25:00,68.7,64.5,29.62,SW,225,0.0,0.0,83,0.00,,,0.00,fowsr,2013-03-20 08:25:00,
2013-03-20 04:30:00,68.7,64.5,29.62,SW,225,0.0,0.0,83,0.00,,,0.00,fowsr,2013-03-20 08:30:00,
2013-03-20 04:35:00,68.9,64.7,29.62,SW,225,0.0,0.0,83,0.00,,,0.00,fowsr,2013-03-20 08:35:00,
2013-03-20 04:40:00,68.9,64.7,29.61,SW,225,0.0,0.0,83,0.00,,,0.00,fowsr,2013-03-20 08:40:00,
2013-03-20 04:45:00,68.9,64.7,29.61,SW,225,0.0,0.0,83,0.00,,,0.00,fowsr,2013-03-20 08:45:00,
2013-03-20 04:50:00,68.9,64.7,29.61,SW,225,0.0,0.0,83,0.00,,,0.00,fowsr,2013-03-20 08:50:00,
2013-03-20 04:55:00,68.7,64.5,29.62,SW,225,0.0,0.0,83,0.00,,,0.00,fowsr,2013-03-20 08:55:00,
2013-03-20 05:00:00,68.7,64.5,29.62,SW,225,0.0,0.0,83,0.00,,,0.00,fowsr,2013-03-20 09:00:00,
2013-03-20 05:05:00,68.5,64.3,29.61,SW,225,0.0,0.0,83,0.00,,,0.00,fowsr,2013-03-20 09:05:00,
2013-03-20 05:10:00,68.5,64.3,29.60,SW,225,0.0,0.0,83,0.00,,,0.00,fowsr,2013-03-20 09:10:00,
2013-03-20 05:15:00,68.4,64.2,29.59,SW,225,0.0,0.7,83,0.00,,,0.00,fowsr,2013-03-20 09:15:00,
2013-03-20 05:20:00,68.2,64.0,29.60,SW,225,0.0,0.0,83,0.00,,,0.00,fowsr,2013-03-20 09:20:00,
2013-03-20 05:25:00,68.2,64.0,29.60,SW,225,0.0,0.0,83,0.00,,,0.00,fowsr,2013-03-20 09:25:00,
2013-03-20 05:30:00,68.2,64.0,29.60,SW,225,0.0,0.0,83,0.00,,,0.00,fowsr,2013-03-20 09:30:00,
2013-03-20 05:35:00,68.0,63.8,29.61,SW,225,0.0,0.0,83,0.00,,,0.00,fowsr,2013-03-20 09:35:00,
2013-03-20 05:40:00,68.0,63.8,29.61,SW,225,0.0,0.0,83,0.00,,,0.00,fowsr,2013-03-20 09:40:00,
2013-03-20 05:45:00,68.0,63.8,29.61,SW,225,0.0,0.0,83,0.00,,,0.00,fowsr,2013-03-20 09:45:00,
2013-03-20 05:50:00,67.8,63.9,29.61,SW,225,0.0,0.0,84,0.00,,,0.00,fowsr,2013-03-20 09:50:00,
2013-03-20 05:55:00,67.8,63.9,29.60,SW,225,0.0,0.0,84,0.00,,,0.00,fowsr,2013-03-20 09:55:00,
2013-03-20 06:00:00,67.6,63.5,29.62,SW,225,0.0,0.0,83,0.00,,,0.00,fowsr,2013-03-20 10:00:00,
2013-03-20 06:05:00,67.8,63.6,29.62,SW,225,0.0,0.0,83,0.00,,,0.00,fowsr,2013-03-20 10:05:00,
2013-03-20 06:10:00,67.6,63.2,29.62,SW,225,0.0,0.0,82,0.00,,,0.00,fowsr,2013-03-20 10:10:00,
2013-03-20 06:15:00,67.6,63.2,29.62,SW,225,0.0,0.0,82,0.00,,,0.00,fowsr,2013-03-20 10:15:00,
2013-03-20 06:20:00,67.5,62.8,29.62,SW,225,0.0,0.0,81,0.00,,,0.00,fowsr,2013-03-20 10:20:00,
2013-03-20 06:25:00,67.5,62.5,29.61,SW,225,0.0,0.0,80,0.00,,,0.00,fowsr,2013-03-20 10:25:00,
2013-03-20 06:30:00,67.3,62.0,29.61,SW,225,0.0,0.0,79,0.00,,,0.00,fowsr,2013-03-20 10:30:00,
2013-03-20 06:35:00,67.3,62.0,29.61,SW,225,0.0,0.0,79,0.00,,,0.00,fowsr,2013-03-20 10:35:00,
2013-03-20 06:40:00,67.1,61.9,29.62,SW,225,0.0,0.0,79,0.00,,,0.00,fowsr,2013-03-20 10:40:00,
2013-03-20 06:45:00,67.3,62.3,29.62,SW,225,0.0,0.0,80,0.00,,,0.00,fowsr,2013-03-20 10:45:00,
2013-03-20 06:50:00,67.3,62.3,29.63,SW,225,0.0,0.7,80,0.00,,,0.00,fowsr,2013-03-20 10:50:00,
2013-03-20 06:55:00,67.1,62.1,29.63,SW,225,0.0,0.0,80,0.00,,,0.00,fowsr,2013-03-20 10:55:00,
2013-03-20 07:00:00,67.1,62.4,29.62,SW,225,0.0,0.0,81,0.00,,,0.00,fowsr,2013-03-20 11:00:00,
2013-03-20 07:05:00,67.1,62.4,29.62,SW,225,0.0,0.0,81,0.00,,,0.00,fowsr,2013-03-20 11:05:00,
2013-03-20 07:10:00,66.9,62.2,29.63,SW,225,0.0,0.0,81,0.00,,,0.00,fowsr,2013-03-20 11:10:00,
2013-03-20 07:15:00,66.9,62.2,29.63,SW,225,0.0,0.0,81,0.00,,,0.00,fowsr,2013-03-20 11:15:00,
2013-03-20 07:20:00,66.7,61.8,29.63,SW,225,0.0,0.0,80,0.00,,,0.00,fowsr,2013-03-20 11:20:00,
2013-03-20 07:25:00,66.7,61.8,29.63,SW,225,0.0,0.0,80,0.00,,,0.00,fowsr,2013-03-20 11:25:00,
2013-03-20 07:30:00,66.7,61.5,29.64,SW,225,0.0,0.0,79,0.00,,,0.00,fowsr,2013-03-20 11:30:00,
2013-03-20 07:35:00,66.7,61.5,29.63,SW,225,0.0,0.0,79,0.00,,,0.00,fowsr,2013-03-20 11:35:00,
2013-03-20 07:40:00,66.9,61.4,29.62,SW,225,0.0,0.7,78,0.00,,,0.00,fowsr,2013-03-20 11:40:00,
2013-03-20 07:45:00,66.9,61.1,29.63,SW,225,0.0,0.7,77,0.00,,,0.00,fowsr,2013-03-20 11:45:00,
2013-03-20 07:50:00,66.9,61.1,29.63,SW,225,0.0,0.0,77,0.00,,,0.00,fowsr,2013-03-20 11:50:00,
2013-03-20 07:55:00,67.1,61.0,29.63,SW,225,0.0,0.0,76,0.00,,,0.00,fowsr,2013-03-20 11:55:00,
2013-03-20 08:00:00,67.1,61.0,29.63,SW,225,0.0,0.0,76,0.00,,,0.00,fowsr,2013-03-20 12:00:00,
2013-03-20 08:05:00,67.1,61.0,29.63,SW,225,0.0,0.0,76,0.00,,,0.00,fowsr,2013-03-20 12:05:00,
2013-03-20 08:10:00,67.3,61.2,29.62,SW,225,0.0,0.0,76,0.00,,,0.00,fowsr,2013-03-20 12:10:00,
2013-03-20 08:15:00,67.3,61.2,29.63,SW,225,0.0,0.0,76,0.00,,,0.00,fowsr,2013-03-20 12:15:00,
2013-03-20 08:20:00,67.5,61.4,29.63,SW,225,0.0,0.0,76,0.00,,,0.00,fowsr,2013-03-20 12:20:00,
2013-03-20 08:25:00,67.6,61.5,29.63,SW,225,0.0,0.0,76,0.00,,,0.00,fowsr,2013-03-20 12:25:00,
2013-03-20 08:30:00,67.6,61.5,29.63,SW,225,0.0,0.0,76,0.00,,,0.00,fowsr,2013-03-20 12:30:00,
2013-03-20 08:35:00,67.8,61.7,29.63,SW,225,0.0,0.0,76,0.00,,,0.00,fowsr,2013-03-20 12:35:00,
2013-03-20 08:40:00,67.8,61.7,29.63,SW,225,0.0,0.0,76,0.00,,,0.00,fowsr,2013-03-20 12:40:00,
2013-03-20 08:45:00,67.8,61.7,29.63,SW,225,0.0,0.0,76,0.00,,,0.00,fowsr,2013-03-20 12:45:00,
2013-03-20 08:50:00,67.8,62.0,29.65,SW,225,0.0,0.0,77,0.00,,,0.00,fowsr,2013-03-20 12:50:00,
2013-03-20 08:55:00,68.0,61.9,29.67,SW,225,0.0,0.0,76,0.00,,,0.00,fowsr,2013-03-20 12:55:00,
2013-03-20 09:00:00,68.0,62.4,29.66,SW,225,0.0,0.0,78,0.00,,,0.00,fowsr,2013-03-20 13:00:00,
2013-03-20 09:05:00,67.6,62.9,29.65,SW,225,0.0,0.0,81,0.00,,,0.00,fowsr,2013-03-20 13:05:00,
2013-03-20 09:10:00,67.5,63.3,29.66,SW,225,0.0,0.0,83,0.00,,,0.00,fowsr,2013-03-20 13:10:00,
2013-03-20 09:15:00,67.3,63.4,29.66,SW,225,0.0,0.0,84,0.00,,,0.00,fowsr,2013-03-20 13:15:00,
2013-03-20 09:20:00,67.1,63.5,29.66,SW,225,0.0,0.0,85,0.00,,,0.00,fowsr,2013-03-20 13:20:00,
2013-03-20 09:25:00,67.1,63.5,29.67,SW,225,0.0,0.0,85,0.00,,,0.00,fowsr,2013-03-20 13:25:00,
2013-03-20 09:30:00,67.1,63.5,29.66,SW,225,0.0,0.0,85,0.00,,,0.00,fowsr,2013-03-20 13:30:00,
2013-03-20 09:35:00,67.1,63.7,29.65,SW,225,0.0,0.0,86,0.00,,,0.00,fowsr,2013-03-20 13:35:00,
2013-03-20 09:40:00,67.3,64.2,29.65,SW,225,0.0,0.0,87,0.00,,,0.00,fowsr,2013-03-20 13:40:00,
2013-03-20 09:45:00,67.5,64.3,29.65,SW,225,0.0,0.0,87,0.00,,,0.00,fowsr,2013-03-20 13:45:00,
2013-03-20 09:50:00,67.6,64.5,29.65,SW,225,0.0,0.0,87,0.00,,,0.00,fowsr,2013-03-20 13:50:00,
2013-03-20 09:55:00,67.8,64.9,29.65,SW,225,0.0,0.0,88,0.00,,,0.00,fowsr,2013-03-20 13:55:00,
2013-03-20 10:00:00,68.2,65.0,29.65,SW,225,0.0,0.0,87,0.00,,,0.00,fowsr,2013-03-20 14:00:00,
2013-03-20 10:05:00,68.7,65.6,29.65,SW,225,0.0,0.0,87,0.00,,,0.00,fowsr,2013-03-20 14:05:00,
2013-03-20 10:10:00,69.3,66.4,29.65,SW,225,0.0,0.0,88,0.00,,,0.00,fowsr,2013-03-20 14:10:00,
2013-03-20 10:15:00,69.6,66.4,29.65,SW,225,0.0,0.0,87,0.00,,,0.00,fowsr,2013-03-20 14:15:00,
2013-03-20 10:20:00,70.0,66.3,29.64,SW,225,0.0,0.0,85,0.00,,,0.00,fowsr,2013-03-20 14:20:00,
2013-03-20 10:25:00,70.2,66.2,29.64,SW,225,0.0,0.0,84,0.00,,,0.00,fowsr,2013-03-20 14:25:00,
2013-03-20 10:30:00,70.7,66.7,29.65,SW,225,0.0,0.7,84,0.00,,,0.00,fowsr,2013-03-20 14:30:00,
2013-03-20 10:35:00,71.6,67.0,29.64,SW,225,0.0,0.0,82,0.00,,,0.00,fowsr,2013-03-20 14:35:00,
2013-03-20 10:40:00,72.7,67.8,29.64,SW,225,0.0,0.0,81,0.00,,,0.00,fowsr,2013-03-20 14:40:00,
2013-03-20 10:45:00,72.9,67.7,29.64,SW,225,0.0,0.0,80,0.00,,,0.00,fowsr,2013-03-20 14:45:00,
2013-03-20 10:50:00,73.2,67.8,29.64,SW,225,0.0,0.0,79,0.00,,,0.00,fowsr,2013-03-20 14:50:00,
2013-03-20 10:55:00,73.6,68.1,29.64,SW,225,0.0,0.0,79,0.00,,,0.00,fowsr,2013-03-20 14:55:00,
2013-03-20 11:00:00,73.9,68.2,29.65,SW,225,0.0,0.0,78,0.00,,,0.00,fowsr,2013-03-20 15:00:00,
2013-03-20 11:05:00,73.9,67.9,29.65,SW,225,0.0,0.0,77,0.00,,,0.00,fowsr,2013-03-20 15:05:00,
2013-03-20 11:10:00,73.8,68.0,29.65,SW,225,0.0,0.7,78,0.00,,,0.00,fowsr,2013-03-20 15:10:00,
2013-03-20 11:15:00,73.6,67.5,29.65,SW,225,0.0,0.0,77,0.00,,,0.00,fowsr,2013-03-20 15:15:00,
2013-03-20 11:20:00,73.8,68.0,29.65,SW,225,0.0,0.0,78,0.00,,,0.00,fowsr,2013-03-20 15:20:00,
2013-03-20 11:25:00,73.8,68.0,29.65,SW,225,0.0,0.0,78,0.00,,,0.00,fowsr,2013-03-20 15:25:00,
2013-03-20 11:30:00,73.8,67.7,29.65,SW,225,0.0,0.0,77,0.00,,,0.00,fowsr,2013-03-20 15:30:00,
2013-03-20 11:35:00,73.8,68.0,29.65,SW,225,0.0,0.0,78,0.00,,,0.00,fowsr,2013-03-20 15:35:00,
2013-03-20 11:40:00,74.1,68.3,29.65,SW,225,0.0,0.0,78,0.00,,,0.00,fowsr,2013-03-20 15:40:00,
2013-03-20 11:45:00,74.1,68.0,29.66,SW,225,0.0,0.0,77,0.00,,,0.00,fowsr,2013-03-20 15:45:00,
2013-03-20 11:50:00,74.3,68.5,29.65,SW,225,0.0,0.0,78,0.00,,,0.00,fowsr,2013-03-20 15:50:00,
2013-03-20 11:55:00,74.8,69.0,29.66,SW,225,0.0,0.0,78,0.00,,,0.00,fowsr,2013-03-20 15:55:00,
2013-03-20 12:00:00,75.4,69.3,29.65,SW,225,0.0,0.0,77,0.00,,,0.00,fowsr,2013-03-20 16:00:00,
2013-03-20 12:05:00,75.9,69.5,29.65,SW,225,0.0,0.0,76,0.00,,,0.00,fowsr,2013-03-20 16:05:00,
2013-03-20 12:10:00,75.9,69.5,29.64,SW,225,0.0,0.0,76,0.00,,,0.00,fowsr,2013-03-20 16:10:00,
2013-03-20 12:15:00,76.5,69.7,29.64,SW,225,0.0,0.0,75,0.00,,,0.00,fowsr,2013-03-20 16:15:00,
2013-03-20 12:20:00,77.0,69.9,29.64,SW,225,0.0,0.0,74,0.00,,,0.00,fowsr,2013-03-20 16:20:00,
2013-03-20 12:25:00,77.2,69.8,29.64,SW,225,0.0,0.0,73,0.00,,,0.00,fowsr,2013-03-20 16:25:00,
2013-03-20 12:30:00,77.2,69.8,29.63,SW,225,0.0,0.0,73,0.00,,,0.00,fowsr,2013-03-20 16:30:00,
2013-03-20 12:35:00,77.2,69.8,29.62,SW,225,0.0,0.0,73,0.00,,,0.00,fowsr,2013-03-20 16:35:00,
2013-03-20 12:40:00,77.2,69.8,29.62,SW,225,0.0,0.0,73,0.00,,,0.00,fowsr,2013-03-20 16:40:00,
2013-03-20 12:45:00,77.2,69.8,29.62,SW,225,0.0,0.0,73,0.00,,,0.00,fowsr,2013-03-20 16:45:00,
2013-03-20 12:50:00,77.4,69.9,29.61,SW,225,0.0,0.0,73,0.00,,,0.00,fowsr,2013-03-20 16:50:00,
2013-03-20 12:55:00,77.5,70.1,29.60,SW,225,0.0,0.0,73,0.00,,,0.00,fowsr,2013-03-20 16:55:00,
2013-03-20 13:00:00,77.5,69.8,29.60,SW,225,0.0,0.0,72,0.00,,,0.00,fowsr,2013-03-20 17:00:00,
2013-03-20 13:05:00,77.4,69.6,29.60,SW,225,0.0,0.0,72,0.00,,,0.00,fowsr,2013-03-20 17:05:00,
2013-03-20 13:10:00,77.4,69.6,29.60,SW,225,0.0,0.0,72,0.00,,,0.00,fowsr,2013-03-20 17:10:00,
2013-03-20 13:15:00,77.2,69.8,29.59,SW,225,0.0,0.0,73,0.00,,,0.00,fowsr,2013-03-20 17:15:00,
2013-03-20 13:20:00,77.2,69.8,29.59,SW,225,0.0,0.0,73,0.00,,,0.00,fowsr,2013-03-20 17:20:00,
2013-03-20 13:25:00,77.2,69.8,29.59,SW,225,0.0,0.0,73,0.00,,,0.00,fowsr,2013-03-20 17:25:00,
2013-03-20 13:30:00,77.2,69.8,29.58,SW,225,0.0,0.0,73,0.00,,,0.00,fowsr,2013-03-20 17:30:00,
2013-03-20 13:35:00,77.2,69.8,29.58,SW,225,0.0,0.0,73,0.00,,,0.00,fowsr,2013-03-20 17:35:00,
2013-03-20 13:40:00,77.2,69.8,29.58,SW,225,0.0,0.0,73,0.00,,,0.00,fowsr,2013-03-20 17:40:00,
2013-03-20 13:45:00,77.4,69.9,29.57,SW,225,0.0,0.0,73,0.00,,,0.00,fowsr,2013-03-20 17:45:00,
2013-03-20 13:50:00,77.4,69.9,29.57,SW,225,0.0,0.0,73,0.00,,,0.00,fowsr,2013-03-20 17:50:00,
2013-03-20 13:55:00,77.4,69.9,29.57,SW,225,0.0,0.0,73,0.00,,,0.00,fowsr,2013-03-20 17:55:00,
2013-03-20 14:00:00,77.5,70.1,29.57,SW,225,0.0,0.0,73,0.00,,,0.00,fowsr,2013-03-20 18:00:00,
2013-03-20 14:05:00,77.7,70.3,29.57,SW,225,0.0,0.0,73,0.00,,,0.00,fowsr,2013-03-20 18:05:00,
2013-03-20 14:10:00,77.7,70.3,29.57,SW,225,0.0,0.0,73,0.00,,,0.00,fowsr,2013-03-20 18:10:00,
2013-03-20 14:15:00,77.7,70.3,29.57,SW,225,0.0,0.0,73,0.00,,,0.00,fowsr,2013-03-20 18:15:00,
2013-03-20 14:20:00,77.9,70.4,29.57,SW,225,0.0,0.0,73,0.00,,,0.00,fowsr,2013-03-20 18:20:00,
2013-03-20 14:25:00,78.1,70.6,29.56,SW,225,0.0,0.0,73,0.00,,,0.00,fowsr,2013-03-20 18:25:00,
2013-03-20 14:30:00,78.3,70.8,29.56,SW,225,0.0,0.0,73,0.00,,,0.00,fowsr,2013-03-20 18:30:00,
2013-03-20 14:35:00,78.4,71.0,29.56,SW,225,0.0,0.0,73,0.00,,,0.00,fowsr,2013-03-20 18:35:00,
2013-03-20 14:40:00,78.6,71.1,29.56,SW,225,0.0,0.0,73,0.00,,,0.00,fowsr,2013-03-20 18:40:00,
2013-03-20 14:45:00,78.8,71.0,29.56,SW,225,0.0,0.0,72,0.00,,,0.00,fowsr,2013-03-20 18:45:00,
2013-03-20 14:50:00,79.2,71.0,29.55,SW,225,0.0,0.0,71,0.00,,,0.00,fowsr,2013-03-20 18:50:00,
2013-03-20 14:55:00,79.2,70.3,29.56,SW,225,0.0,0.0,69,0.00,,,0.00,fowsr,2013-03-20 18:55:00,
2013-03-20 15:00:00,79.3,70.5,29.55,SW,225,0.0,0.0,69,0.00,,,0.00,fowsr,2013-03-20 19:00:00,
2013-03-20 15:05:00,79.3,70.5,29.55,SW,225,0.0,0.0,69,0.00,,,0.00,fowsr,2013-03-20 19:05:00,
2013-03-20 15:10:00,79.3,70.5,29.54,SW,225,0.0,0.0,69,0.00,,,0.00,fowsr,2013-03-20 19:10:00,
2013-03-20 15:15:00,79.3,70.2,29.54,SW,225,0.0,0.0,68,0.00,,,0.00,fowsr,2013-03-20 19:15:00,
2013-03-20 15:20:00,79.2,70.0,29.53,SW,225,0.0,0.0,68,0.00,,,0.00,fowsr,2013-03-20 19:20:00,
2013-03-20 15:25:00,79.0,69.8,29.53,SW,225,0.0,0.0,68,0.00,,,0.00,fowsr,2013-03-20 19:25:00,
2013-03-20 15:30:00,78.8,69.7,29.53,SW,225,0.0,0.0,68,0.00,,,0.00,fowsr,2013-03-20 19:30:00,
2013-03-20 15:35:00,78.8,69.7,29.52,SW,225,0.0,0.0,68,0.00,,,0.00,fowsr,2013-03-20 19:35:00,
2013-03-20 15:40:00,79.2,70.0,29.52,SW,225,0.0,0.0,68,0.00,,,0.00,fowsr,2013-03-20 19:40:00,
2013-03-20 15:45:00,79.5,70.0,29.52,SW,225,0.0,0.0,67,0.00,,,0.00,fowsr,2013-03-20 19:45:00,
2013-03-20 15:50:00,79.7,69.8,29.51,SW,225,0.0,0.0,66,0.00,,,0.00,fowsr,2013-03-20 19:50:00,
2013-03-20 15:55:00,79.5,69.3,29.51,SW,225,0.0,0.0,65,0.00,,,0.00,fowsr,2013-03-20 19:55:00,
2013-03-20 16:00:00,79.3,68.8,29.51,SW,225,0.0,0.0,64,0.00,,,0.00,fowsr,2013-03-20 20:00:00,
2013-03-20 16:05:00,79.2,68.6,29.50,SW,225,0.0,0.0,64,0.00,,,0.00,fowsr,2013-03-20 20:05:00,
2013-03-20 16:10:00,79.3,68.8,29.51,SW,225,0.0,0.0,64,0.00,,,0.00,fowsr,2013-03-20 20:10:00,
2013-03-20 16:15:00,79.5,68.9,29.50,SW,225,0.0,0.0,64,0.00,,,0.00,fowsr,2013-03-20 20:15:00,
2013-03-20 16:20:00,79.9,68.2,29.50,SW,225,0.0,0.0,61,0.00,,,0.00,fowsr,2013-03-20 20:20:00,
2013-03-20 16:25:00,80.1,68.0,29.50,SW,225,0.0,0.0,60,0.00,,,0.00,fowsr,2013-03-20 20:25:00,
2013-03-20 16:30:00,80.4,67.1,29.50,SW,225,0.0,0.0,57,0.00,,,0.00,fowsr,2013-03-20 20:30:00,
2013-03-20 16:35:00,80.4,66.7,29.50,SW,225,0.0,0.0,56,0.00,,,0.00,fowsr,2013-03-20 20:35:00,
2013-03-20 16:40:00,80.4,66.3,29.50,SW,225,0.0,0.0,55,0.00,,,0.00,fowsr,2013-03-20 20:40:00,
2013-03-20 16:45:00,80.1,66.0,29.49,SW,225,0.0,0.0,55,0.00,,,0.00,fowsr,2013-03-20 20:45:00,
2013-03-20 16:50:00,80.1,66.4,29.49,SW,225,0.0,0.0,56,0.00,,,0.00,fowsr,2013-03-20 20:50:00,
2013-03-20 16:55:00,80.1,66.4,29.49,SW,225,0.0,0.0,56,0.00,,,0.00,fowsr,2013-03-20 20:55:00,
2013-03-20 17:00:00,79.9,66.2,29.49,SW,225,0.0,0.0,56,0.00,,,0.00,fowsr,2013-03-20 21:00:00,
2013-03-20 17:05:00,79.7,66.1,29.49,SW,225,0.0,0.0,56,0.00,,,0.00,fowsr,2013-03-20 21:05:00,
2013-03-20 17:10:00,79.5,66.3,29.49,SW,225,0.0,0.0,57,0.00,,,0.00,fowsr,2013-03-20 21:10:00,
2013-03-20 17:15:00,79.3,66.1,29.48,SW,225,0.0,0.0,57,0.00,,,0.00,fowsr,2013-03-20 21:15:00,
2013-03-20 17:20:00,79.0,66.2,29.49,SW,225,0.0,0.0,58,0.00,,,0.00,fowsr,2013-03-20 21:20:00,
2013-03-20 17:25:00,78.8,66.0,29.48,SW,225,0.0,0.0,58,0.00,,,0.00,fowsr,2013-03-20 21:25:00,
2013-03-20 17:30:00,78.6,66.3,29.48,SW,225,0.0,0.0,59,0.00,,,0.00,fowsr,2013-03-20 21:30:00,
2013-03-20 17:35:00,78.4,65.7,29.49,SW,225,0.0,0.0,58,0.00,,,0.00,fowsr,2013-03-20 21:35:00,
2013-03-20 17:40:00,78.3,65.5,29.49,SW,225,0.0,0.0,58,0.00,,,0.00,fowsr,2013-03-20 21:40:00,
2013-03-20 17:45:00,78.1,65.8,29.49,SW,225,0.0,0.0,59,0.00,,,0.00,fowsr,2013-03-20 21:45:00,
2013-03-20 17:50:00,77.9,65.6,29.49,SW,225,0.0,0.0,59,0.00,,,0.00,fowsr,2013-03-20 21:50:00,
2013-03-20 17:55:00,77.7,65.4,29.49,SW,225,0.0,0.0,59,0.00,,,0.00,fowsr,2013-03-20 21:55:00,
2013-03-20 18:00:00,77.7,65.8,29.49,SW,225,0.0,0.0,60,0.00,,,0.00,fowsr,2013-03-20 22:00:00,
2013-03-20 18:05:00,77.5,65.6,29.49,SW,225,0.0,0.0,60,0.00,,,0.00,fowsr,2013-03-20 22:05:00,
2013-03-20 18:10:00,77.4,65.5,29.49,SW,225,0.0,0.0,60,0.00,,,0.00,fowsr,2013-03-20 22:10:00,
2013-03-20 18:15:00,77.2,65.3,29.49,SW,225,0.0,0.0,60,0.00,,,0.00,fowsr,2013-03-20 22:15:00,
2013-03-20 18:20:00,76.8,65.3,29.49,SW,225,0.0,0.0,61,0.00,,,0.00,fowsr,2013-03-20 22:20:00,
2013-03-20 18:25:00,76.6,65.2,29.50,SW,225,0.0,0.0,61,0.00,,,0.00,fowsr,2013-03-20 22:25:00,
2013-03-20 18:30:00,76.3,65.2,29.51,SW,225,0.0,0.0,62,0.00,,,0.00,fowsr,2013-03-20 22:30:00,
2013-03-20 18:35:00,75.9,64.9,29.51,SW,225,0.0,0.0,62,0.00,,,0.00,fowsr,2013-03-20 22:35:00,
2013-03-20 18:40:00,75.6,64.5,29.51,SW,225,0.0,0.0,62,0.00,,,0.00,fowsr,2013-03-20 22:40:00,
2013-03-20 18:45:00,75.2,64.2,29.51,SW,225,0.0,0.0,62,0.00,,,0.00,fowsr,2013-03-20 22:45:00,
2013-03-20 18:50:00,75.0,64.4,29.51,SW,225,0.0,0.0,63,0.00,,,0.00,fowsr,2013-03-20 22:50:00,
2013-03-20 18:55:00,74.7,64.1,29.52,SW,225,0.0,0.0,63,0.00,,,0.00,fowsr,2013-03-20 22:55:00,
2013-03-20 19:00:00,74.5,63.9,29.51,SW,225,0.0,0.0,63,0.00,,,0.00,fowsr,2013-03-20 23:00:00,
2013-03-20 19:05:00,74.3,63.7,29.52,SW,225,0.0,0.0,63,0.00,,,0.00,fowsr,2013-03-20 23:05:00,
2013-03-20 19:10:00,73.9,63.7,29.52,SW,225,0.0,0.0,64,0.00,,,0.00,fowsr,2013-03-20 23:10:00,
2013-03-20 19:15:00,73.8,63.6,29.52,SW,225,0.0,0.0,64,0.00,,,0.00,fowsr,2013-03-20 23:15:00,
2013-03-20 19:20:00,73.4,63.2,29.53,SW,225,0.0,0.0,64,0.00,,,0.00,fowsr,2013-03-20 23:20:00,
2013-03-20 19:25:00,73.0,62.5,29.53,SW,225,0.0,0.0,63,0.00,,,0.00,fowsr,2013-03-20 23:25:00,
2013-03-20 19:30:00,72.7,62.2,29.54,SW,225,0.0,0.0,63,0.00,,,0.00,fowsr,2013-03-20 23:30:00,
2013-03-20 19:40:00,72.1,61.7,29.55,SW,225,0.0,0.0,63,0.00,,,0.00,fowsr,2013-03-20 23:40:00,
2013-03-20 19:45:00,72.0,61.9,29.55,SSW,202,0.0,0.7,64,0.00,,,0.00,fowsr,2013-03-20 23:45:00,
2013-03-20 19:50:00,71.4,62.4,29.55,SW,225,0.0,0.0,67,0.00,,,0.00,fowsr,2013-03-20 23:50:00,
2013-03-20 19:55:00,71.1,62.0,29.55,SW,225,0.0,0.0,67,0.00,,,0.00,fowsr,2013-03-20 23:55:00,
2013-03-20 20:00:00,70.5,62.2,29.55,SW,225,0.0,0.0,69,0.00,,,0.00,fowsr,2013-03-21 00:00:00,
2013-03-20 20:05:00,70.2,62.1,29.55,SW,225,0.0,0.0,70,0.00,,,0.00,fowsr,2013-03-21 00:05:00,
2013-03-20 20:10:00,70.0,62.6,29.55,SW,225,0.0,0.0,72,0.00,,,0.00,fowsr,2013-03-21 00:10:00,
2013-03-20 20:15:00,69.6,62.5,29.56,SW,225,0.0,0.0,73,0.00,,,0.00,fowsr,2013-03-21 00:15:00,
2013-03-20 20:20:00,69.4,62.7,29.56,SW,225,0.0,0.0,74,0.00,,,0.00,fowsr,2013-03-21 00:20:00,
2013-03-20 20:25:00,69.3,62.5,29.56,SW,225,0.0,0.0,74,0.00,,,0.00,fowsr,2013-03-21 00:25:00,
2013-03-20 20:30:00,69.3,62.8,29.57,SW,225,0.0,0.0,75,0.00,,,0.00,fowsr,2013-03-21 00:30:00,
2013-03-20 20:35:00,69.1,62.6,29.56,SW,225,0.0,0.0,75,0.00,,,0.00,fowsr,2013-03-21 00:35:00,
2013-03-20 20:40:00,68.9,62.7,29.57,SW,225,0.0,0.0,76,0.00,,,0.00,fowsr,2013-03-21 00:40:00,
2013-03-20 20:45:00,68.7,62.6,29.57,SW,225,0.0,0.0,76,0.00,,,0.00,fowsr,2013-03-21 00:45:00,
2013-03-20 20:50:00,68.7,62.9,29.57,SW,225,0.0,0.0,77,0.00,,,0.00,fowsr,2013-03-21 00:50:00,
2013-03-20 20:55:00,68.5,62.7,29.57,SW,225,0.0,0.7,77,0.00,,,0.00,fowsr,2013-03-21 00:55:00,
2013-03-20 21:00:00,68.2,62.3,29.57,SW,225,0.0,0.7,77,0.00,,,0.00,fowsr,2013-03-21 01:00:00,
2013-03-20 21:05:00,68.0,62.2,29.58,SW,225,0.0,0.0,77,0.00,,,0.00,fowsr,2013-03-21 01:05:00,
2013-03-20 21:10:00,67.5,61.6,29.58,SW,225,0.0,0.0,77,0.00,,,0.00,fowsr,2013-03-21 01:10:00,
2013-03-20 21:15:00,67.1,61.3,29.58,SW,225,0.0,0.0,77,0.00,,,0.00,fowsr,2013-03-21 01:15:00,
2013-03-20 21:20:00,66.7,61.0,29.58,SW,225,0.0,0.0,77,0.00,,,0.00,fowsr,2013-03-21 01:20:00,
2013-03-20 21:25:00,66.6,60.8,29.56,SW,225,0.0,0.0,77,0.00,,,0.00,fowsr,2013-03-21 01:25:00,
2013-03-20 21:30:00,66.2,60.4,29.52,SW,225,0.0,0.0,77,0.00,,,0.00,fowsr,2013-03-21 01:30:00,
2013-03-20 21:35:00,65.5,60.0,29.56,SW,225,0.0,0.0,78,0.00,,,0.00,fowsr,2013-03-21 01:35:00,
2013-03-20 21:40:00,65.3,60.1,29.56,SW,225,0.0,0.0,79,0.00,,,0.00,fowsr,2013-03-21 01:40:00,
2013-03-20 21:45:00,65.1,60.2,29.56,SW,225,0.0,0.0,80,0.00,,,0.00,fowsr,2013-03-21 01:45:00,
2013-03-20 21:50:00,64.9,60.0,29.56,SW,225,0.0,0.0,80,0.00,,,0.00,fowsr,2013-03-21 01:50:00,
2013-03-20 21:55:00,64.8,59.9,29.55,SW,225,0.0,0.0,80,0.00,,,0.00,fowsr,2013-03-21 01:55:00,
2013-03-20 22:00:00,64.6,59.7,29.54,SW,225,0.0,0.0,80,0.00,,,0.00,fowsr,2013-03-21 02:00:00,
2013-03-20 22:05:00,64.4,59.5,29.54,SW,225,0.0,0.0,80,0.00,,,0.00,fowsr,2013-03-21 02:05:00,
2013-03-20 22:10:00,64.2,59.6,29.55,SW,225,0.0,0.0,81,0.00,,,0.00,fowsr,2013-03-21 02:10:00,
2013-03-20 22:15:00,64.0,59.4,29.54,SW,225,0.0,0.0,81,0.00,,,0.00,fowsr,2013-03-21 02:15:00,
2013-03-20 22:20:00,64.0,59.4,29.55,SW,225,0.0,0.0,81,0.00,,,0.00,fowsr,2013-03-21 02:20:00,
2013-03-20 22:25:00,63.7,59.1,29.55,SW,225,0.0,0.0,81,0.00,,,0.00,fowsr,2013-03-21 02:25:00,
2013-03-20 22:30:00,63.5,58.9,29.54,SW,225,0.0,0.0,81,0.00,,,0.00,fowsr,2013-03-21 02:30:00,
2013-03-20 22:35:00,63.3,58.7,29.55,SW,225,0.0,0.0,81,0.00,,,0.00,fowsr,2013-03-21 02:35:00,
2013-03-20 22:40:00,63.1,58.6,29.54,SW,225,0.0,0.0,81,0.00,,,0.00,fowsr,2013-03-21 02:40:00,
2013-03-20 22:45:00,63.1,58.8,29.55,SW,225,0.0,0.0,82,0.00,,,0.00,fowsr,2013-03-21 02:45:00,
2013-03-20 22:50:00,63.1,58.8,29.54,SW,225,0.0,0.0,82,0.00,,,0.00,fowsr,2013-03-21 02:50:00,
2013-03-20 22:55:00,63.1,58.8,29.54,SW,225,0.0,0.0,82,0.00,,,0.00,fowsr,2013-03-21 02:55:00,
2013-03-20 23:00:00,63.0,58.7,29.54,SW,225,0.0,0.0,82,0.00,,,0.00,fowsr,2013-03-21 03:00:00,
2013-03-20 23:05:00,63.0,58.7,29.54,SW,225,0.0,0.0,82,0.00,,,0.00,fowsr,2013-03-21 03:05:00,
2013-03-20 23:10:00,63.0,58.9,29.54,SW,225,0.0,0.0,83,0.00,,,0.00,fowsr,2013-03-21 03:10:00,
2013-03-20 23:20:00,63.0,58.9,29.55,SW,225,0.0,0.0,83,0.00,,,0.00,fowsr,2013-03-21 03:20:00,
2013-03-20 23:25:00,63.0,58.9,29.57,SW,225,0.0,0.0,83,0.00,,,0.00,fowsr,2013-03-21 03:25:00,
2013-03-20 23:30:00,62.8,58.7,29.57,SW,225,0.0,0.0,83,0.00,,,0.00,fowsr,2013-03-21 03:30:00,
2013-03-20 23:35:00,62.8,58.7,29.57,SW,225,0.0,0.0,83,0.00,,,0.00,fowsr,2013-03-21 03:35:00,
2013-03-20 23:40:00,62.6,58.6,29.57,SW,225,0.0,0.0,83,0.00,,,0.00,fowsr,2013-03-21 03:40:00,
2013-03-20 23:45:00,62.6,58.6,29.57,SW,225,0.0,0.0,83,0.00,,,0.00,fowsr,2013-03-21 03:45:00,
2013-03-20 23:50:00,62.6,58.6,29.57,SW,225,0.0,0.0,83,0.00,,,0.00,fowsr,2013-03-21 03:50:00,
2013-03-20 23:55:00,62.2,58.5,29.57,SW,225,0.0,0.0,84,0.00,,,0.00,fowsr,2013-03-21 03:55:00,